createdAt,value
2019-02-17T00:01:45.899Z,99580.66
2019-02-17T00:04:17.720Z,99573.81
2019-02-17T00:06:49.938Z,99570.47
2019-02-17T00:09:21.689Z,99578.68
2019-02-17T00:11:53.328Z,99578.68
2019-02-17T00:14:24.828Z,99584.69
2019-02-17T00:16:56.421Z,99588.19
2019-02-17T00:19:27.749Z,99588.73
2019-02-17T00:21:59.673Z,99594.07
2019-02-17T00:24:31.127Z,99594.07
2019-02-17T00:27:02.690Z,99598.23
2019-02-17T00:29:34.439Z,99604.45
2019-02-17T00:32:05.924Z,99601.89
2019-02-17T00:34:37.796Z,99609.56
2019-02-17T00:37:09.392Z,99609.56
2019-02-17T00:39:41.126Z,99610.48
2019-02-17T00:42:12.559Z,99605.19
2019-02-17T00:44:43.902Z,99605.19
2019-02-17T00:47:15.232Z,99607.64
2019-02-17T00:49:46.704Z,99613.05
2019-02-17T00:52:18.169Z,99613.05
2019-02-17T00:54:49.544Z,99623.02
2019-02-17T00:57:20.942Z,99634.20
2019-02-17T00:59:52.827Z,99631.12
2019-02-17T01:02:25.713Z,99642.09
2019-02-17T01:04:57.140Z,99642.09
2019-02-17T01:07:29.318Z,99655.69
2019-02-17T01:10:00.634Z,99652.91
2019-02-17T01:12:32.752Z,99667.02
2019-02-17T01:15:04.381Z,99662.34
2019-02-17T01:17:35.825Z,99662.34
2019-02-17T01:20:07.707Z,99657.16
2019-02-17T01:22:39.073Z,99662.08
2019-02-17T01:25:10.835Z,99662.08
2019-02-17T01:27:42.121Z,99664.00
2019-02-17T01:30:15.766Z,99665.95
2019-02-17T01:32:47.623Z,99671.77
2019-02-17T01:35:19.260Z,99673.20
2019-02-17T01:37:50.615Z,99673.20
2019-02-17T01:40:23.613Z,99685.23
2019-02-17T01:42:55.323Z,99685.23
2019-02-17T01:45:27.053Z,99696.96
2019-02-17T01:47:58.515Z,99696.71
2019-02-17T01:50:30.117Z,99699.52
2019-02-17T01:53:01.486Z,99697.14
2019-02-17T01:55:32.892Z,99711.74
2019-02-17T01:58:04.507Z,99704.13
2019-02-17T02:00:36.010Z,99712.37
2019-02-17T02:03:07.799Z,99723.49
2019-02-17T02:05:39.576Z,99723.49
2019-02-17T02:08:11.399Z,99734.63
2019-02-17T02:10:42.762Z,99742.20
2019-02-17T02:13:14.426Z,99742.20
2019-02-17T02:15:45.732Z,99743.29
2019-02-17T02:18:17.103Z,99745.70
2019-02-17T02:20:48.741Z,99745.70
2019-02-17T02:23:20.094Z,99746.82
2019-02-17T02:25:51.317Z,99746.82
2019-02-17T02:28:23.361Z,99746.16
2019-02-17T02:30:54.333Z,99746.16
2019-02-17T02:33:25.642Z,99761.95
2019-02-17T02:35:56.629Z,99761.95
2019-02-17T02:38:28.158Z,99765.64
2019-02-17T02:40:59.622Z,99773.95
2019-02-17T02:43:31.028Z,99776.69
2019-02-17T02:46:02.439Z,99782.34
2019-02-17T02:48:33.924Z,99782.34
2019-02-17T02:51:05.496Z,99791.91
2019-02-17T02:53:37.121Z,99794.75
2019-02-17T02:56:08.704Z,99794.75
2019-02-17T02:58:40.404Z,99795.91
2019-02-17T03:01:12.094Z,99799.59
2019-02-17T03:03:45.978Z,99796.05
2019-02-17T03:06:51.192Z,99811.77
2019-02-17T03:09:23.351Z,99811.77
2019-02-17T03:11:54.735Z,99807.67
2019-02-17T03:14:26.772Z,99807.67
2019-02-17T03:17:00.512Z,99806.38
2019-02-17T03:19:31.063Z,99804.59
2019-02-17T03:22:02.306Z,99804.59
2019-02-17T03:24:37.323Z,99806.56
2019-02-17T03:27:08.971Z,99805.44
2019-02-17T03:29:40.485Z,99811.73
2019-02-17T03:32:12.141Z,99807.09
2019-02-17T03:34:44.106Z,99807.09
2019-02-17T03:37:15.622Z,99812.30
2019-02-17T03:39:47.677Z,99796.67
2019-02-17T03:42:19.118Z,99796.67
2019-02-17T03:44:50.707Z,99805.95
2019-02-17T03:47:22.286Z,99805.95
2019-02-17T03:49:53.997Z,99806.42
2019-02-17T03:52:25.166Z,99805.24
2019-02-17T03:54:56.738Z,99802.34
2019-02-17T03:57:28.308Z,99813.38
2019-02-17T04:00:00.835Z,99813.38
2019-02-17T04:02:32.467Z,99816.36
2019-02-17T04:05:04.313Z,99816.52
2019-02-17T04:07:35.711Z,99816.52
2019-02-17T04:10:07.491Z,99815.75
2019-02-17T04:12:38.774Z,99807.76
2019-02-17T04:15:10.430Z,99805.55
2019-02-17T04:17:42.306Z,99812.03
2019-02-17T04:20:14.050Z,99806.25
2019-02-17T04:22:45.664Z,99806.25
2019-02-17T04:25:19.161Z,99826.78
2019-02-17T04:27:53.233Z,99826.78
2019-02-17T04:30:29.354Z,99824.81
2019-02-17T04:32:58.187Z,99824.81
2019-02-17T04:35:29.811Z,99832.64
2019-02-17T04:38:01.334Z,99832.64
2019-02-17T04:40:32.753Z,99838.26
2019-02-17T04:43:04.145Z,99833.56
2019-02-17T04:45:35.997Z,99826.52
2019-02-17T04:48:07.266Z,99820.63
2019-02-17T04:50:39.100Z,99820.63
2019-02-17T04:53:10.515Z,99815.48
2019-02-17T04:55:42.184Z,99810.73
2019-02-17T04:58:13.518Z,99810.73
2019-02-17T05:00:45.330Z,99802.62
2019-02-17T05:03:16.877Z,99797.72
2019-02-17T05:05:48.407Z,99790.70
2019-02-17T05:08:19.654Z,99790.19
2019-02-17T05:10:51.097Z,99789.92
2019-02-17T05:13:22.259Z,99792.07
2019-02-17T05:15:53.579Z,99792.80
2019-02-17T05:18:25.170Z,99792.80
2019-02-17T05:20:56.827Z,99799.58
2019-02-17T05:23:28.431Z,99799.58
2019-02-17T05:25:59.867Z,99788.23
2019-02-17T05:28:31.115Z,99788.23
2019-02-17T05:31:02.969Z,99790.50
2019-02-17T05:33:34.392Z,99790.50
2019-02-17T05:36:06.166Z,99793.68
2019-02-17T05:38:38.589Z,99793.68
2019-02-17T05:41:10.235Z,99781.61
2019-02-17T05:43:41.753Z,99781.61
2019-02-17T05:46:13.449Z,99770.29
2019-02-17T05:48:44.757Z,99764.33
2019-02-17T05:51:16.239Z,99764.33
2019-02-17T05:53:47.313Z,99765.97
2019-02-17T05:56:19.148Z,99763.65
2019-02-17T05:58:50.650Z,99781.61
2019-02-17T06:01:22.287Z,99766.30
2019-02-17T06:03:53.884Z,99762.49
2019-02-17T06:06:25.716Z,99766.82
2019-02-17T06:08:57.148Z,99766.82
2019-02-17T06:11:28.523Z,99759.53
2019-02-17T06:14:00.096Z,99739.22
2019-02-17T06:16:33.051Z,99735.75
2019-02-17T06:19:04.592Z,99735.75
2019-02-17T06:21:35.917Z,99720.85
2019-02-17T06:24:07.426Z,99713.00
2019-02-17T06:26:38.898Z,99697.06
2019-02-17T06:29:10.527Z,99692.52
2019-02-17T06:31:42.246Z,99692.52
2019-02-17T06:34:13.815Z,99696.45
2019-02-17T06:36:45.391Z,99714.58
2019-02-17T06:39:17.008Z,99698.14
2019-02-17T06:41:48.384Z,99698.14
2019-02-17T06:44:20.078Z,99698.08
2019-02-17T06:46:56.103Z,99678.97
2019-02-17T06:49:27.569Z,99678.97
2019-02-17T06:51:58.849Z,99681.37
2019-02-17T06:54:31.022Z,99681.37
2019-02-17T06:57:08.772Z,99663.67
2019-02-17T06:59:45.908Z,99658.48
2019-02-17T07:02:17.498Z,99658.48
2019-02-17T07:05:22.933Z,99642.23
2019-02-17T07:07:54.132Z,99632.59
2019-02-17T07:10:26.630Z,99632.59
2019-02-17T07:12:58.182Z,99630.94
2019-02-17T07:15:29.956Z,99615.75
2019-02-17T07:18:01.356Z,99621.28
2019-02-17T07:20:32.863Z,99612.25
2019-02-17T07:23:04.357Z,99604.87
2019-02-17T07:25:36.019Z,99604.87
2019-02-17T07:28:07.586Z,99592.78
2019-02-17T07:30:39.063Z,99590.16
2019-02-17T07:33:10.485Z,99590.55
2019-02-17T07:35:42.129Z,99590.55
2019-02-17T07:38:14.211Z,99584.47
2019-02-17T07:40:45.629Z,99588.71
2019-02-17T07:43:17.154Z,99584.63
2019-02-17T07:45:49.125Z,99592.69
2019-02-17T07:48:20.594Z,99591.81
2019-02-17T07:50:52.350Z,99579.97
2019-02-17T07:53:24.183Z,99570.84
2019-02-17T07:55:55.928Z,99570.84
2019-02-17T07:58:27.278Z,99589.14
2019-02-17T08:00:58.441Z,99586.52
2019-02-17T08:03:29.757Z,99572.53
2019-02-17T08:06:00.864Z,99563.44
2019-02-17T08:08:32.265Z,99560.00
2019-02-17T08:11:04.463Z,99545.39
2019-02-17T08:13:36.561Z,99545.39
2019-02-17T08:16:07.805Z,99550.67
2019-02-17T08:18:39.245Z,99550.67
2019-02-17T08:21:10.722Z,99539.00
2019-02-17T08:23:41.956Z,99538.98
2019-02-17T08:26:13.355Z,99528.03
2019-02-17T08:28:44.799Z,99526.99
2019-02-17T08:31:16.397Z,99522.75
2019-02-17T08:33:56.586Z,99522.75
2019-02-17T08:36:27.935Z,99509.02
2019-02-17T08:39:01.109Z,99508.59
2019-02-17T08:41:34.093Z,99490.64
2019-02-17T08:44:05.673Z,99483.65
2019-02-17T08:46:37.241Z,99471.41
2019-02-17T08:49:08.525Z,99467.03
2019-02-17T08:51:40.679Z,99467.03
2019-02-17T08:54:12.130Z,99463.55
2019-02-17T08:56:43.444Z,99446.92
2019-02-17T08:59:14.894Z,99446.92
2019-02-17T09:01:46.560Z,99433.05
2019-02-17T09:04:18.023Z,99427.04
2019-02-17T09:06:49.616Z,99427.04
2019-02-17T09:09:21.368Z,99404.31
2019-02-17T09:11:55.280Z,99404.31
2019-02-17T09:14:26.845Z,99404.02
2019-02-17T09:16:58.173Z,99408.55
2019-02-17T09:19:29.709Z,99399.02
2019-02-17T09:22:01.203Z,99401.00
2019-02-17T09:24:32.820Z,99401.00
2019-02-17T09:27:04.360Z,99390.77
2019-02-17T09:29:35.870Z,99385.41
2019-02-17T09:32:15.933Z,99385.41
2019-02-17T09:34:40.485Z,99386.41
2019-02-17T09:37:11.869Z,99373.00
2019-02-17T09:39:43.227Z,99361.83
2019-02-17T09:42:14.748Z,99361.83
2019-02-17T09:44:47.340Z,99361.97
2019-02-17T09:47:20.286Z,99351.47
2019-02-17T09:49:51.632Z,99351.47
2019-02-17T09:52:23.074Z,99340.86
2019-02-17T09:54:54.696Z,99341.45
2019-02-17T09:57:26.056Z,99342.21
2019-02-17T09:59:57.672Z,99326.56
2019-02-17T10:02:28.992Z,99317.93
2019-02-17T10:05:00.523Z,99314.20
2019-02-17T10:07:31.838Z,99314.20
2019-02-17T10:10:03.351Z,99316.45
2019-02-17T10:12:34.788Z,99320.00
2019-02-17T10:15:06.830Z,99311.96
2019-02-17T10:17:38.179Z,99312.51
2019-02-17T10:20:11.292Z,99316.83
2019-02-17T10:22:43.081Z,99323.77
2019-02-17T10:25:14.628Z,99325.25
2019-02-17T10:27:46.332Z,99325.25
2019-02-17T10:30:17.973Z,99331.63
2019-02-17T10:32:52.076Z,99333.41
2019-02-17T10:35:23.405Z,99320.55
2019-02-17T10:37:54.791Z,99320.55
2019-02-17T10:40:26.410Z,99310.06
2019-02-17T10:42:57.948Z,99315.22
2019-02-17T10:45:29.376Z,99311.02
2019-02-17T10:48:01.193Z,99320.00
2019-02-17T10:50:32.326Z,99320.00
2019-02-17T10:53:03.673Z,99325.25
2019-02-17T10:55:34.834Z,99325.25
2019-02-17T10:58:06.413Z,99317.20
2019-02-17T11:00:37.988Z,99317.20
2019-02-17T11:03:10.905Z,99315.89
2019-02-17T11:05:42.816Z,99301.61
2019-02-17T11:08:14.145Z,99288.70
2019-02-17T11:10:45.929Z,99276.17
2019-02-17T11:13:17.748Z,99276.17
2019-02-17T11:15:49.951Z,99293.39
2019-02-17T11:18:21.853Z,99318.61
2019-02-17T11:20:53.461Z,99336.20
2019-02-17T11:23:24.806Z,99336.20
2019-02-17T11:25:56.216Z,99346.52
2019-02-17T11:28:28.352Z,99351.05
2019-02-17T11:31:00.341Z,99348.67
2019-02-17T11:33:34.031Z,99348.67
2019-02-17T11:36:06.138Z,99346.69
2019-02-17T11:38:38.833Z,99358.37
2019-02-17T11:41:12.561Z,99374.19
2019-02-17T11:43:43.845Z,99361.54
2019-02-17T11:46:15.512Z,99356.16
2019-02-17T11:48:46.685Z,99361.32
2019-02-17T11:51:18.390Z,99361.32
2019-02-17T11:53:49.775Z,99360.61
2019-02-17T11:56:21.433Z,99365.09
2019-02-17T11:58:53.340Z,99370.92
2019-02-17T12:01:25.046Z,99357.59
2019-02-17T12:03:56.992Z,99350.39
2019-02-17T12:06:28.958Z,99350.39
2019-02-17T12:09:00.587Z,99339.44
2019-02-17T12:11:32.296Z,99356.46
2019-02-17T12:14:04.003Z,99356.46
2019-02-17T12:16:37.233Z,99344.30
2019-02-17T12:19:08.974Z,99344.30
2019-02-17T12:22:08.658Z,99361.02
2019-02-17T12:24:45.413Z,99361.02
2019-02-17T12:27:25.159Z,99371.00
2019-02-17T12:30:02.758Z,99377.33
2019-02-17T12:32:42.553Z,99388.01
2019-02-17T12:35:14.605Z,99397.15
2019-02-17T12:37:47.447Z,99397.51
2019-02-17T12:40:19.114Z,99397.51
2019-02-17T12:42:51.179Z,99396.11
2019-02-17T12:45:23.112Z,99402.97
2019-02-17T12:47:57.895Z,99402.97
2019-02-17T12:50:28.964Z,99379.60
2019-02-17T12:53:00.386Z,99379.60
2019-02-17T12:55:31.718Z,99377.94
2019-02-17T12:58:03.549Z,99383.20
2019-02-17T13:00:35.203Z,99388.36
2019-02-17T13:03:07.054Z,99388.46
2019-02-17T13:05:41.099Z,99373.64
2019-02-17T13:08:12.588Z,99381.10
2019-02-17T13:10:44.128Z,99362.86
2019-02-17T13:13:15.679Z,99371.59
2019-02-17T13:15:47.128Z,99376.45
2019-02-17T13:18:19.676Z,99376.45
2019-02-17T13:20:51.260Z,99373.45
2019-02-17T13:23:24.134Z,99370.02
2019-02-17T13:25:56.977Z,99379.70
2019-02-17T13:28:30.248Z,99379.77
2019-02-17T13:31:06.139Z,99379.77
2019-02-17T13:33:40.991Z,99384.67
2019-02-17T13:36:12.283Z,99381.20
2019-02-17T13:38:43.897Z,99383.58
2019-02-17T13:41:16.922Z,99380.27
2019-02-17T13:43:48.683Z,99373.84
2019-02-17T13:46:20.643Z,99373.20
2019-02-17T13:48:52.356Z,99373.20
2019-02-17T13:51:24.123Z,99381.42
2019-02-17T13:53:56.731Z,99387.45
2019-02-17T13:56:28.209Z,99378.97
2019-02-17T13:59:00.424Z,99378.97
2019-02-17T14:01:35.166Z,99338.75
2019-02-17T14:04:06.727Z,99324.09
2019-02-17T14:06:41.131Z,99328.13
2019-02-17T14:09:12.840Z,99328.13
2019-02-17T14:11:44.513Z,99337.73
2019-02-17T14:14:19.901Z,99341.98
2019-02-17T14:16:53.365Z,99341.12
2019-02-17T14:19:25.135Z,99347.45
2019-02-17T14:21:56.951Z,99347.45
2019-02-17T14:24:28.517Z,99344.38
2019-02-17T14:27:00.036Z,99345.50
2019-02-17T14:29:31.417Z,99335.76
2019-02-17T14:32:02.740Z,99323.46
2019-02-17T14:34:34.384Z,99319.76
2019-02-17T14:37:06.679Z,99315.91
2019-02-17T14:39:38.100Z,99315.91
2019-02-17T14:42:09.620Z,99321.69
2019-02-17T14:44:41.080Z,99316.84
2019-02-17T14:47:12.449Z,99331.33
2019-02-17T14:49:44.076Z,99331.33
2019-02-17T14:52:15.574Z,99332.17
2019-02-17T14:54:47.052Z,99340.91
2019-02-17T14:57:18.340Z,99339.87
2019-02-17T14:59:50.320Z,99340.33
2019-02-17T15:02:21.791Z,99340.33
2019-02-17T15:04:53.151Z,99341.64
2019-02-17T15:07:24.729Z,99340.88
2019-02-17T15:09:56.562Z,99337.77
2019-02-17T15:12:27.970Z,99337.77
2019-02-17T15:14:59.282Z,99339.13
2019-02-17T15:17:30.885Z,99336.28
2019-02-17T15:20:02.390Z,99343.47
2019-02-17T15:22:35.007Z,99344.32
2019-02-17T15:25:07.558Z,99344.32
2019-02-17T15:27:39.249Z,99350.47
2019-02-17T15:30:19.913Z,99364.00
2019-02-17T15:32:51.804Z,99364.00
2019-02-17T15:35:23.127Z,99358.78
2019-02-17T15:37:54.326Z,99364.33
2019-02-17T15:40:25.686Z,99364.33
2019-02-17T15:42:57.262Z,99378.38
2019-02-17T15:45:28.927Z,99375.36
2019-02-17T15:48:00.355Z,99382.37
2019-02-17T15:50:32.237Z,99367.53
2019-02-17T15:53:03.643Z,99367.53
2019-02-17T15:55:34.916Z,99366.89
2019-02-17T15:58:06.485Z,99368.98
2019-02-17T16:00:55.269Z,99360.50
2019-02-17T16:03:26.610Z,99363.23
2019-02-17T16:05:58.493Z,99363.23
2019-02-17T16:08:29.864Z,99355.41
2019-02-17T16:11:01.483Z,99351.11
2019-02-17T16:13:33.087Z,99335.98
2019-02-17T16:16:04.961Z,99324.19
2019-02-17T16:18:36.238Z,99324.19
2019-02-17T16:21:07.722Z,99316.70
2019-02-17T16:23:39.092Z,99319.22
2019-02-17T16:26:10.851Z,99325.56
2019-02-17T16:28:42.730Z,99325.56
2019-02-17T16:31:14.262Z,99316.59
2019-02-17T16:33:45.608Z,99309.27
2019-02-17T16:36:17.413Z,99321.04
2019-02-17T16:38:48.915Z,99321.04
2019-02-17T16:41:20.562Z,99328.36
2019-02-17T16:43:52.197Z,99344.06
2019-02-17T16:46:23.318Z,99353.42
2019-02-17T16:48:54.885Z,99357.82
2019-02-17T16:51:26.390Z,99360.72
2019-02-17T16:53:59.720Z,99365.04
2019-02-17T16:56:31.368Z,99364.19
2019-02-17T16:59:03.017Z,99373.79
2019-02-17T17:01:35.072Z,99373.79
2019-02-17T17:04:06.627Z,99379.59
2019-02-17T17:06:38.208Z,99379.66
2019-02-17T17:09:10.099Z,99370.52
2019-02-17T17:11:42.041Z,99371.78
2019-02-17T17:14:13.606Z,99371.78
2019-02-17T17:16:44.947Z,99377.83
2019-02-17T17:19:16.499Z,99388.98
2019-02-17T17:21:48.354Z,99392.20
2019-02-17T17:24:21.815Z,99384.70
2019-02-17T17:26:53.210Z,99379.45
2019-02-17T17:29:25.087Z,99381.45
2019-02-17T17:31:56.638Z,99382.22
2019-02-17T17:34:28.206Z,99382.22
2019-02-17T17:36:59.701Z,99377.04
2019-02-17T17:39:32.819Z,99377.04
2019-02-17T17:42:04.634Z,99387.78
2019-02-17T17:44:36.521Z,99393.66
2019-02-17T17:47:08.371Z,99399.67
2019-02-17T17:49:40.014Z,99400.87
2019-02-17T17:52:11.391Z,99400.87
2019-02-17T17:54:42.835Z,99409.56
2019-02-17T17:57:14.462Z,99383.41
2019-02-17T17:59:46.555Z,99383.41
2019-02-17T18:02:18.195Z,99398.50
2019-02-17T18:04:49.746Z,99418.58
2019-02-17T18:07:21.141Z,99418.58
2019-02-17T18:09:52.471Z,99399.11
2019-02-17T18:12:24.027Z,99399.11
2019-02-17T18:14:55.795Z,99410.64
2019-02-17T18:17:27.184Z,99425.88
2019-02-17T18:19:59.164Z,99425.88
2019-02-17T18:22:30.617Z,99441.02
2019-02-17T18:25:02.164Z,99431.95
2019-02-17T18:27:33.797Z,99431.95
2019-02-17T18:30:06.571Z,99426.41
2019-02-17T18:32:38.056Z,99404.33
2019-02-17T18:35:19.258Z,99404.33
2019-02-17T18:37:43.161Z,99384.96
2019-02-17T18:40:14.633Z,99406.64
2019-02-17T18:42:46.259Z,99406.64
2019-02-17T18:45:17.794Z,99411.49
2019-02-17T18:47:49.542Z,99432.95
2019-02-17T18:50:21.047Z,99432.95
2019-02-17T18:52:52.495Z,99431.34
2019-02-17T18:55:24.196Z,99422.64
2019-02-17T18:57:55.931Z,99422.64
2019-02-17T19:00:28.172Z,99421.46
2019-02-17T19:02:59.337Z,99425.31
2019-02-17T19:05:32.624Z,99418.03
2019-02-17T19:08:03.905Z,99418.03
2019-02-17T19:10:35.550Z,99420.23
2019-02-17T19:13:07.125Z,99420.23
2019-02-17T19:15:38.812Z,99428.72
2019-02-17T19:18:10.168Z,99418.20
2019-02-17T19:20:41.269Z,99418.20
2019-02-17T19:23:12.993Z,99416.97
2019-02-17T19:25:44.343Z,99421.88
2019-02-17T19:28:16.125Z,99423.36
2019-02-17T19:30:47.664Z,99423.36
2019-02-17T19:33:19.828Z,99419.06
2019-02-17T19:35:51.033Z,99398.42
2019-02-17T19:38:24.684Z,99398.55
2019-02-17T19:40:55.989Z,99398.55
2019-02-17T19:43:27.251Z,99391.23
2019-02-17T19:45:58.484Z,99386.02
2019-02-17T19:48:29.792Z,99371.63
2019-02-17T19:51:01.255Z,99355.09
2019-02-17T19:53:32.840Z,99355.09
2019-02-17T19:56:04.156Z,99331.73
2019-02-17T19:58:37.705Z,99322.33
2019-02-17T20:01:09.143Z,99322.33
2019-02-17T20:03:47.189Z,99319.09
2019-02-17T20:06:21.098Z,99318.97
2019-02-17T20:08:52.745Z,99318.97
2019-02-17T20:11:24.152Z,99306.03
2019-02-17T20:13:55.958Z,99306.03
2019-02-17T20:16:27.617Z,99308.58
2019-02-17T20:18:59.068Z,99287.55
2019-02-17T20:21:30.286Z,99279.18
2019-02-17T20:24:02.187Z,99279.18
2019-02-17T20:26:33.815Z,99275.16
2019-02-17T20:29:05.474Z,99284.73
2019-02-17T20:31:36.808Z,99284.73
2019-02-17T20:34:08.246Z,99280.36
2019-02-17T20:36:39.475Z,99289.12
2019-02-17T20:39:11.564Z,99282.57
2019-02-17T20:41:43.215Z,99268.11
2019-02-17T20:44:15.064Z,99280.34
2019-02-17T20:46:46.707Z,99274.64
2019-02-17T20:49:18.081Z,99274.69
2019-02-17T20:51:50.350Z,99282.57
2019-02-17T20:54:21.913Z,99282.57
2019-02-17T20:56:53.574Z,99272.15
2019-02-17T20:59:25.196Z,99266.77
2019-02-17T21:01:56.661Z,99260.71
2019-02-17T21:04:28.215Z,99260.47
2019-02-17T21:07:00.510Z,99254.86
2019-02-17T21:09:31.969Z,99246.64
2019-02-17T21:12:03.258Z,99223.66
2019-02-17T21:14:34.721Z,99223.66
2019-02-17T21:17:06.046Z,99213.06
2019-02-17T21:19:37.280Z,99222.80
2019-02-17T21:22:08.485Z,99207.81
2019-02-17T21:24:40.815Z,99207.81
2019-02-17T21:27:12.086Z,99213.12
2019-02-17T21:29:43.281Z,99226.29
2019-02-17T21:32:14.712Z,99232.80
2019-02-17T21:34:45.999Z,99221.48
2019-02-17T21:37:17.343Z,99221.48
2019-02-17T21:39:48.686Z,99226.52
2019-02-17T21:42:20.300Z,99229.49
2019-02-17T21:44:51.671Z,99229.49
2019-02-17T21:47:23.156Z,99238.20
2019-02-17T21:49:54.743Z,99236.05
2019-02-17T21:52:26.482Z,99242.03
2019-02-17T21:54:57.838Z,99242.03
2019-02-17T21:57:29.237Z,99241.48
2019-02-17T22:00:00.489Z,99237.70
2019-02-17T22:02:33.493Z,99253.63
2019-02-17T22:05:05.077Z,99253.63
2019-02-17T22:07:36.863Z,99249.16
2019-02-17T22:10:08.770Z,99246.30
2019-02-17T22:12:40.336Z,99246.30
2019-02-17T22:15:13.246Z,99241.62
2019-02-17T22:17:44.446Z,99224.88
2019-02-17T22:20:15.770Z,99224.88
2019-02-17T22:22:46.934Z,99218.97
2019-02-17T22:25:18.408Z,99217.39
2019-02-17T22:27:50.131Z,99217.39
2019-02-17T22:30:21.538Z,99226.75
2019-02-17T22:32:52.713Z,99226.75
2019-02-17T22:35:24.409Z,99221.17
2019-02-17T22:37:55.658Z,99223.27
2019-02-17T22:40:27.217Z,99232.69
2019-02-17T22:42:58.617Z,99232.69
2019-02-17T22:45:30.221Z,99233.66
2019-02-17T22:48:01.403Z,99227.00
2019-02-17T22:50:33.064Z,99221.52
2019-02-17T22:53:04.793Z,99233.37
2019-02-17T22:55:36.276Z,99227.91
2019-02-17T22:58:07.442Z,99222.82
2019-02-17T23:00:48.279Z,99222.82
2019-02-17T23:03:21.703Z,99230.48
2019-02-17T23:05:52.927Z,99230.48
2019-02-17T23:08:24.402Z,99222.02
2019-02-17T23:10:55.650Z,99222.02
2019-02-17T23:13:27.071Z,99221.77
2019-02-17T23:15:59.971Z,99236.98
2019-02-17T23:18:31.227Z,99236.98
2019-02-17T23:21:02.418Z,99248.42
2019-02-17T23:23:33.994Z,99255.72
2019-02-17T23:26:05.703Z,99253.69
2019-02-17T23:28:37.137Z,99253.69
2019-02-17T23:31:08.542Z,99246.19
2019-02-17T23:33:39.980Z,99246.19
2019-02-17T23:36:11.127Z,99252.78
2019-02-17T23:38:42.952Z,99255.98
2019-02-17T23:41:14.276Z,99250.03
2019-02-17T23:43:45.623Z,99250.03
2019-02-17T23:46:16.816Z,99254.28
2019-02-17T23:48:48.274Z,99250.73
2019-02-17T23:51:19.910Z,99247.47
2019-02-17T23:53:52.117Z,99242.12
2019-02-17T23:56:23.584Z,99242.12
2019-02-17T23:58:54.922Z,99241.38
